sensor_id;sensor_type;location;lat;lon;timestamp;pressure;altitude;pressure_sealevel;temperature;humidity
73624;BME280;61921;53.226;-1.296;2023-05-23T00:00:24;101517.56;;;13.74;74.71
73624;BME280;61921;53.226;-1.296;2023-05-23T00:02:49;101519.67;;;13.78;74.82
73624;BME280;61921;53.226;-1.296;2023-05-23T00:05:14;101520.44;;;13.71;75.00
73624;BME280;61921;53.226;-1.296;2023-05-23T00:07:39;101518.62;;;13.89;74.04
73624;BME280;61921;53.226;-1.296;2023-05-23T00:10:05;101514.56;;;13.79;74.73
73624;BME280;61921;53.226;-1.296;2023-05-23T00:12:30;101512.53;;;13.92;73.73
73624;BME280;61921;53.226;-1.296;2023-05-23T00:14:55;101514.74;;;13.83;74.12
73624;BME280;61921;53.226;-1.296;2023-05-23T00:17:20;101511.37;;;13.59;75.07
73624;BME280;61921;53.226;-1.296;2023-05-23T00:19:45;101509.36;;;13.58;75.06
73624;BME280;61921;53.226;-1.296;2023-05-23T00:22:11;101510.02;;;13.49;75.49
73624;BME280;61921;53.226;-1.296;2023-05-23T00:24:36;101506.82;;;13.44;75.58
73624;BME280;61921;53.226;-1.296;2023-05-23T00:27:02;101507.16;;;13.27;76.36
73624;BME280;61921;53.226;-1.296;2023-05-23T00:29:27;101507.13;;;13.36;76.20
73624;BME280;61921;53.226;-1.296;2023-05-23T00:31:52;101508.24;;;13.42;75.79
73624;BME280;61921;53.226;-1.296;2023-05-23T00:34:18;101510.56;;;13.33;76.22
73624;BME280;61921;53.226;-1.296;2023-05-23T00:36:43;101512.48;;;13.26;76.54
73624;BME280;61921;53.226;-1.296;2023-05-23T00:39:10;101508.93;;;13.29;75.88
73624;BME280;61921;53.226;-1.296;2023-05-23T00:41:34;101508.47;;;13.16;76.26
73624;BME280;61921;53.226;-1.296;2023-05-23T00:44:00;101510.23;;;13.23;76.57
73624;BME280;61921;53.226;-1.296;2023-05-23T00:46:25;101512.99;;;13.25;76.45
73624;BME280;61921;53.226;-1.296;2023-05-23T00:48:50;101515.23;;;13.07;77.69
73624;BME280;61921;53.226;-1.296;2023-05-23T00:51:16;101518.97;;;13.07;77.70
73624;BME280;61921;53.226;-1.296;2023-05-23T00:53:41;101521.72;;;13.08;77.85
73624;BME280;61921;53.226;-1.296;2023-05-23T00:56:07;101521.47;;;13.17;77.09
73624;BME280;61921;53.226;-1.296;2023-05-23T00:58:32;101522.73;;;13.10;77.39
73624;BME280;61921;53.226;-1.296;2023-05-23T01:00:58;101518.97;;;13.27;77.06
73624;BME280;61921;53.226;-1.296;2023-05-23T01:03:23;101517.88;;;13.14;77.03
73624;BME280;61921;53.226;-1.296;2023-05-23T01:05:48;101517.87;;;13.32;76.37
73624;BME280;61921;53.226;-1.296;2023-05-23T01:08:13;101516.21;;;13.41;75.82
73624;BME280;61921;53.226;-1.296;2023-05-23T01:10:39;101517.26;;;13.29;76.57
73624;BME280;61921;53.226;-1.296;2023-05-23T01:13:15;101511.28;;;13.30;76.82
73624;BME280;61921;53.226;-1.296;2023-05-23T01:15:35;101512.17;;;13.23;77.04
73624;BME280;61921;53.226;-1.296;2023-05-23T01:18:00;101510.91;;;12.75;78.90
73624;BME280;61921;53.226;-1.296;2023-05-23T01:20:21;101512.06;;;12.78;78.56
73624;BME280;61921;53.226;-1.296;2023-05-23T01:22:59;101511.40;;;12.64;79.62
73624;BME280;61921;53.226;-1.296;2023-05-23T01:25:23;101513.37;;;12.73;79.50
73624;BME280;61921;53.226;-1.296;2023-05-23T01:27:44;101513.85;;;12.82;78.82
73624;BME280;61921;53.226;-1.296;2023-05-23T01:30:04;101513.22;;;12.83;78.62
73624;BME280;61921;53.226;-1.296;2023-05-23T01:32:28;101520.60;;;12.70;79.00
73624;BME280;61921;53.226;-1.296;2023-05-23T01:34:53;101521.18;;;12.55;79.95
73624;BME280;61921;53.226;-1.296;2023-05-23T01:37:18;101522.40;;;12.65;79.70
73624;BME280;61921;53.226;-1.296;2023-05-23T01:39:43;101523.47;;;12.48;80.30
73624;BME280;61921;53.226;-1.296;2023-05-23T01:42:08;101523.34;;;12.54;79.87
73624;BME280;61921;53.226;-1.296;2023-05-23T01:44:34;101529.62;;;12.32;80.87
73624;BME280;61921;53.226;-1.296;2023-05-23T01:47:00;101526.35;;;12.41;80.63
73624;BME280;61921;53.226;-1.296;2023-05-23T01:49:25;101529.06;;;12.49;79.59
73624;BME280;61921;53.226;-1.296;2023-05-23T01:51:50;101531.06;;;12.22;81.25
73624;BME280;61921;53.226;-1.296;2023-05-23T01:54:16;101528.63;;;12.23;81.11
73624;BME280;61921;53.226;-1.296;2023-05-23T01:56:41;101533.00;;;12.36;80.73
73624;BME280;61921;53.226;-1.296;2023-05-23T01:59:06;101530.67;;;12.46;79.95
73624;BME280;61921;53.226;-1.296;2023-05-23T02:01:32;101526.12;;;12.50;79.79
73624;BME280;61921;53.226;-1.296;2023-05-23T02:03:58;101528.29;;;12.60;79.12
73624;BME280;61921;53.226;-1.296;2023-05-23T02:06:22;101529.81;;;12.44;80.04
73624;BME280;61921;53.226;-1.296;2023-05-23T02:08:48;101528.31;;;12.42;80.19
73624;BME280;61921;53.226;-1.296;2023-05-23T02:11:13;101529.50;;;12.52;79.69
73624;BME280;61921;53.226;-1.296;2023-05-23T02:13:39;101527.01;;;12.53;80.14
73624;BME280;61921;53.226;-1.296;2023-05-23T02:16:05;101526.26;;;12.65;79.58
73624;BME280;61921;53.226;-1.296;2023-05-23T02:18:29;101523.13;;;12.72;78.83
73624;BME280;61921;53.226;-1.296;2023-05-23T02:20:55;101518.04;;;12.74;78.04
73624;BME280;61921;53.226;-1.296;2023-05-23T02:23:20;101526.41;;;12.69;78.52
73624;BME280;61921;53.226;-1.296;2023-05-23T02:25:45;101530.13;;;12.62;79.66
73624;BME280;61921;53.226;-1.296;2023-05-23T02:28:11;101534.35;;;12.66;79.53
73624;BME280;61921;53.226;-1.296;2023-05-23T02:30:36;101533.45;;;12.67;79.42
73624;BME280;61921;53.226;-1.296;2023-05-23T02:33:04;101535.08;;;12.65;79.14
73624;BME280;61921;53.226;-1.296;2023-05-23T02:35:27;101534.44;;;12.53;80.23
73624;BME280;61921;53.226;-1.296;2023-05-23T02:37:52;101531.56;;;12.62;79.90
73624;BME280;61921;53.226;-1.296;2023-05-23T02:40:18;101533.11;;;12.81;78.88
73624;BME280;61921;53.226;-1.296;2023-05-23T02:42:43;101532.18;;;12.85;78.94
73624;BME280;61921;53.226;-1.296;2023-05-23T02:45:09;101533.02;;;12.92;79.12
73624;BME280;61921;53.226;-1.296;2023-05-23T02:47:33;101531.48;;;12.90;79.43
73624;BME280;61921;53.226;-1.296;2023-05-23T02:49:59;101528.06;;;12.77;80.27
73624;BME280;61921;53.226;-1.296;2023-05-23T02:52:24;101529.04;;;12.69;80.79
73624;BME280;61921;53.226;-1.296;2023-05-23T02:54:49;101528.53;;;12.81;80.66
73624;BME280;61921;53.226;-1.296;2023-05-23T02:57:15;101526.83;;;12.78;81.14
73624;BME280;61921;53.226;-1.296;2023-05-23T02:59:40;101525.48;;;12.76;81.78
73624;BME280;61921;53.226;-1.296;2023-05-23T03:02:06;101527.04;;;12.76;82.17
73624;BME280;61921;53.226;-1.296;2023-05-23T03:04:31;101534.49;;;12.36;84.80
73624;BME280;61921;53.226;-1.296;2023-05-23T03:06:57;101534.85;;;12.66;83.68
73624;BME280;61921;53.226;-1.296;2023-05-23T03:09:22;101534.53;;;12.89;82.27
73624;BME280;61921;53.226;-1.296;2023-05-23T03:11:47;101541.27;;;13.04;80.95
73624;BME280;61921;53.226;-1.296;2023-05-23T03:14:12;101542.13;;;13.15;79.82
73624;BME280;61921;53.226;-1.296;2023-05-23T03:16:38;101538.81;;;13.10;79.50
73624;BME280;61921;53.226;-1.296;2023-05-23T03:19:03;101540.93;;;13.14;78.98
73624;BME280;61921;53.226;-1.296;2023-05-23T03:21:28;101542.88;;;13.21;78.50
73624;BME280;61921;53.226;-1.296;2023-05-23T03:23:53;101547.25;;;13.25;78.45
73624;BME280;61921;53.226;-1.296;2023-05-23T03:26:18;101544.20;;;13.26;78.50
73624;BME280;61921;53.226;-1.296;2023-05-23T03:28:44;101543.07;;;13.27;78.41
73624;BME280;61921;53.226;-1.296;2023-05-23T03:31:09;101541.34;;;13.23;78.51
73624;BME280;61921;53.226;-1.296;2023-05-23T03:33:35;101542.24;;;13.22;78.41
73624;BME280;61921;53.226;-1.296;2023-05-23T03:36:00;101546.13;;;13.26;78.17
73624;BME280;61921;53.226;-1.296;2023-05-23T03:38:26;101545.00;;;13.27;77.96
73624;BME280;61921;53.226;-1.296;2023-05-23T03:40:51;101543.73;;;13.12;78.33
73624;BME280;61921;53.226;-1.296;2023-05-23T03:43:16;101550.92;;;13.17;78.43
73624;BME280;61921;53.226;-1.296;2023-05-23T03:45:41;101555.02;;;13.16;78.11
73624;BME280;61921;53.226;-1.296;2023-05-23T03:48:06;101561.07;;;13.03;78.61
73624;BME280;61921;53.226;-1.296;2023-05-23T03:50:32;101563.15;;;12.96;78.79
73624;BME280;61921;53.226;-1.296;2023-05-23T03:52:58;101560.14;;;12.79;80.10
73624;BME280;61921;53.226;-1.296;2023-05-23T03:55:23;101559.51;;;12.61;81.99
73624;BME280;61921;53.226;-1.296;2023-05-23T03:57:48;101556.01;;;12.40;82.91
73624;BME280;61921;53.226;-1.296;2023-05-23T04:00:14;101559.43;;;12.43;83.11
73624;BME280;61921;53.226;-1.296;2023-05-23T04:02:39;101553.33;;;12.30;83.84
73624;BME280;61921;53.226;-1.296;2023-05-23T04:05:05;101555.56;;;12.16;84.75
73624;BME280;61921;53.226;-1.296;2023-05-23T04:07:29;101553.30;;;12.17;84.76
73624;BME280;61921;53.226;-1.296;2023-05-23T04:09:55;101552.52;;;11.78;86.52
73624;BME280;61921;53.226;-1.296;2023-05-23T04:12:20;101550.55;;;11.67;87.38
73624;BME280;61921;53.226;-1.296;2023-05-23T04:14:46;101547.48;;;11.45;88.73
73624;BME280;61921;53.226;-1.296;2023-05-23T04:17:11;101553.77;;;11.66;88.05
73624;BME280;61921;53.226;-1.296;2023-05-23T04:19:36;101551.46;;;11.55;88.15
73624;BME280;61921;53.226;-1.296;2023-05-23T04:22:01;101553.42;;;11.49;88.38
73624;BME280;61921;53.226;-1.296;2023-05-23T04:24:27;101556.82;;;11.64;87.40
73624;BME280;61921;53.226;-1.296;2023-05-23T04:26:52;101556.12;;;11.73;86.98
73624;BME280;61921;53.226;-1.296;2023-05-23T04:29:18;101560.20;;;11.96;85.91
73624;BME280;61921;53.226;-1.296;2023-05-23T04:31:43;101555.60;;;11.75;86.23
73624;BME280;61921;53.226;-1.296;2023-05-23T04:34:08;101559.72;;;11.85;85.67
73624;BME280;61921;53.226;-1.296;2023-05-23T04:36:33;101555.78;;;12.03;85.13
73624;BME280;61921;53.226;-1.296;2023-05-23T04:38:58;101559.17;;;11.95;84.94
73624;BME280;61921;53.226;-1.296;2023-05-23T04:41:24;101559.64;;;12.19;84.46
73624;BME280;61921;53.226;-1.296;2023-05-23T04:43:49;101557.66;;;12.09;84.61
73624;BME280;61921;53.226;-1.296;2023-05-23T04:46:14;101556.80;;;12.02;85.13
73624;BME280;61921;53.226;-1.296;2023-05-23T04:48:40;101561.70;;;12.11;84.89
73624;BME280;61921;53.226;-1.296;2023-05-23T04:51:06;101561.17;;;12.44;83.49
73624;BME280;61921;53.226;-1.296;2023-05-23T04:53:31;101563.21;;;12.32;83.34
73624;BME280;61921;53.226;-1.296;2023-05-23T04:55:57;101562.20;;;12.44;82.83
73624;BME280;61921;53.226;-1.296;2023-05-23T04:58:22;101563.97;;;12.53;81.81
73624;BME280;61921;53.226;-1.296;2023-05-23T05:00:47;101563.64;;;12.29;82.22
73624;BME280;61921;53.226;-1.296;2023-05-23T05:03:12;101564.13;;;12.41;81.23
73624;BME280;61921;53.226;-1.296;2023-05-23T05:05:38;101567.54;;;12.39;81.20
73624;BME280;61921;53.226;-1.296;2023-05-23T05:08:04;101568.36;;;12.42;81.65
73624;BME280;61921;53.226;-1.296;2023-05-23T05:10:29;101568.87;;;12.76;80.97
73624;BME280;61921;53.226;-1.296;2023-05-23T05:12:54;101575.78;;;12.66;82.36
73624;BME280;61921;53.226;-1.296;2023-05-23T05:15:19;101576.60;;;12.78;82.00
73624;BME280;61921;53.226;-1.296;2023-05-23T05:17:45;101577.50;;;12.98;81.29
73624;BME280;61921;53.226;-1.296;2023-05-23T05:20:10;101574.76;;;13.08;80.89
73624;BME280;61921;53.226;-1.296;2023-05-23T05:22:35;101571.17;;;13.18;80.64
73624;BME280;61921;53.226;-1.296;2023-05-23T05:25:00;101567.76;;;13.35;79.94
73624;BME280;61921;53.226;-1.296;2023-05-23T05:27:26;101567.01;;;13.46;79.58
73624;BME280;61921;53.226;-1.296;2023-05-23T05:29:51;101570.28;;;13.60;78.96
73624;BME280;61921;53.226;-1.296;2023-05-23T05:32:17;101574.29;;;13.59;78.83
73624;BME280;61921;53.226;-1.296;2023-05-23T05:34:42;101576.83;;;13.68;78.70
73624;BME280;61921;53.226;-1.296;2023-05-23T05:37:07;101581.10;;;13.74;78.10
73624;BME280;61921;53.226;-1.296;2023-05-23T05:39:32;101581.15;;;13.79;78.09
73624;BME280;61921;53.226;-1.296;2023-05-23T05:41:58;101577.83;;;13.79;78.05
73624;BME280;61921;53.226;-1.296;2023-05-23T05:44:23;101580.41;;;13.80;77.97
73624;BME280;61921;53.226;-1.296;2023-05-23T05:46:49;101575.59;;;13.80;77.64
73624;BME280;61921;53.226;-1.296;2023-05-23T05:49:14;101568.16;;;13.30;79.68
73624;BME280;61921;53.226;-1.296;2023-05-23T05:51:39;101569.51;;;13.08;79.56
73624;BME280;61921;53.226;-1.296;2023-05-23T05:54:04;101565.29;;;13.00;80.16
73624;BME280;61921;53.226;-1.296;2023-05-23T05:56:29;101559.11;;;12.84;80.35
73624;BME280;61921;53.226;-1.296;2023-05-23T05:58:55;101558.54;;;12.66;80.96
73624;BME280;61921;53.226;-1.296;2023-05-23T06:01:20;101555.13;;;12.60;81.57
73624;BME280;61921;53.226;-1.296;2023-05-23T06:03:46;101552.87;;;12.31;83.18
73624;BME280;61921;53.226;-1.296;2023-05-23T06:06:11;101559.78;;;12.58;82.94
73624;BME280;61921;53.226;-1.296;2023-05-23T06:08:37;101559.62;;;12.47;83.71
73624;BME280;61921;53.226;-1.296;2023-05-23T06:11:03;101558.85;;;12.38;84.30
73624;BME280;61921;53.226;-1.296;2023-05-23T06:13:28;101561.06;;;12.64;83.78
73624;BME280;61921;53.226;-1.296;2023-05-23T06:15:54;101562.99;;;12.38;83.75
73624;BME280;61921;53.226;-1.296;2023-05-23T06:18:19;101563.15;;;12.61;83.39
73624;BME280;61921;53.226;-1.296;2023-05-23T06:20:44;101562.94;;;12.88;82.79
73624;BME280;61921;53.226;-1.296;2023-05-23T06:23:09;101564.49;;;13.06;82.27
73624;BME280;61921;53.226;-1.296;2023-05-23T06:25:35;101569.50;;;12.85;81.94
73624;BME280;61921;53.226;-1.296;2023-05-23T06:28:00;101576.75;;;12.59;83.10
73624;BME280;61921;53.226;-1.296;2023-05-23T06:30:26;101578.61;;;12.65;83.15
73624;BME280;61921;53.226;-1.296;2023-05-23T06:32:51;101572.66;;;12.76;81.99
73624;BME280;61921;53.226;-1.296;2023-05-23T06:35:17;101577.64;;;12.75;82.50
73624;BME280;61921;53.226;-1.296;2023-05-23T06:37:42;101578.34;;;12.92;82.01
73624;BME280;61921;53.226;-1.296;2023-05-23T06:40:09;101581.96;;;12.74;82.27
73624;BME280;61921;53.226;-1.296;2023-05-23T06:42:33;101585.57;;;12.84;81.88
73624;BME280;61921;53.226;-1.296;2023-05-23T06:44:58;101588.60;;;13.08;81.13
73624;BME280;61921;53.226;-1.296;2023-05-23T06:47:24;101588.34;;;13.02;81.21
73624;BME280;61921;53.226;-1.296;2023-05-23T06:49:49;101587.77;;;13.06;80.24
73624;BME280;61921;53.226;-1.296;2023-05-23T06:52:15;101587.71;;;13.11;79.81
73624;BME280;61921;53.226;-1.296;2023-05-23T06:54:40;101585.79;;;12.92;81.50
73624;BME280;61921;53.226;-1.296;2023-05-23T06:57:06;101583.28;;;13.20;79.83
73624;BME280;61921;53.226;-1.296;2023-05-23T06:59:31;101584.65;;;13.10;80.13
73624;BME280;61921;53.226;-1.296;2023-05-23T07:01:56;101585.79;;;13.33;79.01
73624;BME280;61921;53.226;-1.296;2023-05-23T07:04:22;101584.58;;;13.50;78.06
73624;BME280;61921;53.226;-1.296;2023-05-23T07:06:47;101589.98;;;13.41;78.21
73624;BME280;61921;53.226;-1.296;2023-05-23T07:09:13;101588.56;;;13.42;77.08
73624;BME280;61921;53.226;-1.296;2023-05-23T07:11:38;101588.77;;;13.85;76.41
73624;BME280;61921;53.226;-1.296;2023-05-23T07:14:03;101591.52;;;13.99;74.80
73624;BME280;61921;53.226;-1.296;2023-05-23T07:16:29;101598.25;;;14.43;73.48
73624;BME280;61921;53.226;-1.296;2023-05-23T07:18:54;101601.65;;;14.18;73.48
73624;BME280;61921;53.226;-1.296;2023-05-23T07:21:20;101604.42;;;14.44;72.22
73624;BME280;61921;53.226;-1.296;2023-05-23T07:23:45;101604.49;;;14.37;70.86
73624;BME280;61921;53.226;-1.296;2023-05-23T07:26:11;101601.12;;;14.41;70.24
73624;BME280;61921;53.226;-1.296;2023-05-23T07:28:37;101603.92;;;14.72;69.96
73624;BME280;61921;53.226;-1.296;2023-05-23T07:31:02;101602.90;;;15.04;67.53
73624;BME280;61921;53.226;-1.296;2023-05-23T07:33:27;101603.24;;;15.00;65.21
73624;BME280;61921;53.226;-1.296;2023-05-23T07:35:53;101606.48;;;15.13;66.48
73624;BME280;61921;53.226;-1.296;2023-05-23T07:38:18;101608.02;;;14.90;65.85
73624;BME280;61921;53.226;-1.296;2023-05-23T07:40:43;101604.55;;;14.78;66.49
73624;BME280;61921;53.226;-1.296;2023-05-23T07:43:08;101602.57;;;15.58;64.63
73624;BME280;61921;53.226;-1.296;2023-05-23T07:45:34;101607.49;;;15.99;62.28
73624;BME280;61921;53.226;-1.296;2023-05-23T07:48:00;101608.41;;;15.95;61.67
73624;BME280;61921;53.226;-1.296;2023-05-23T07:50:25;101605.34;;;15.95;60.18
73624;BME280;61921;53.226;-1.296;2023-05-23T07:52:50;101614.36;;;15.87;60.75
73624;BME280;61921;53.226;-1.296;2023-05-23T07:55:16;101616.68;;;16.10;61.01
73624;BME280;61921;53.226;-1.296;2023-05-23T07:57:41;101613.70;;;16.70;59.48
73624;BME280;61921;53.226;-1.296;2023-05-23T08:00:07;101614.96;;;16.43;56.59
73624;BME280;61921;53.226;-1.296;2023-05-23T08:02:31;101610.97;;;16.92;57.44
73624;BME280;61921;53.226;-1.296;2023-05-23T08:04:56;101613.77;;;16.70;57.30
73624;BME280;61921;53.226;-1.296;2023-05-23T08:07:22;101620.57;;;16.36;57.37
73624;BME280;61921;53.226;-1.296;2023-05-23T08:09:47;101615.82;;;16.51;57.18
73624;BME280;61921;53.226;-1.296;2023-05-23T08:12:13;101614.63;;;16.50;57.85
73624;BME280;61921;53.226;-1.296;2023-05-23T08:14:38;101612.50;;;16.64;56.61
73624;BME280;61921;53.226;-1.296;2023-05-23T08:17:04;101607.74;;;16.76;57.33
73624;BME280;61921;53.226;-1.296;2023-05-23T08:19:29;101603.55;;;16.48;58.21
73624;BME280;61921;53.226;-1.296;2023-05-23T08:21:54;101602.90;;;16.22;57.43
73624;BME280;61921;53.226;-1.296;2023-05-23T08:24:20;101602.78;;;16.11;57.16
73624;BME280;61921;53.226;-1.296;2023-05-23T08:26:44;101603.03;;;16.52;55.97
73624;BME280;61921;53.226;-1.296;2023-05-23T08:29:10;101603.50;;;16.72;55.44
73624;BME280;61921;53.226;-1.296;2023-05-23T08:31:35;101601.27;;;17.61;53.43
73624;BME280;61921;53.226;-1.296;2023-05-23T08:34:00;101600.97;;;17.53;54.07
73624;BME280;61921;53.226;-1.296;2023-05-23T08:36:26;101605.01;;;17.19;53.97
73624;BME280;61921;53.226;-1.296;2023-05-23T08:38:51;101611.91;;;16.78;53.98
73624;BME280;61921;53.226;-1.296;2023-05-23T08:41:19;101611.14;;;16.89;54.41
73624;BME280;61921;53.226;-1.296;2023-05-23T08:43:41;101608.42;;;17.07;53.87
73624;BME280;61921;53.226;-1.296;2023-05-23T08:46:06;101608.09;;;16.92;55.06
73624;BME280;61921;53.226;-1.296;2023-05-23T08:48:32;101609.89;;;17.22;54.47
73624;BME280;61921;53.226;-1.296;2023-05-23T08:50:57;101612.92;;;17.70;52.35
73624;BME280;61921;53.226;-1.296;2023-05-23T08:53:25;101611.06;;;17.86;49.80
73624;BME280;61921;53.226;-1.296;2023-05-23T08:55:49;101612.70;;;18.38;50.31
73624;BME280;61921;53.226;-1.296;2023-05-23T08:58:14;101614.68;;;18.32;51.02
73624;BME280;61921;53.226;-1.296;2023-05-23T09:00:39;101610.24;;;17.60;51.62
73624;BME280;61921;53.226;-1.296;2023-05-23T09:03:04;101610.44;;;17.82;50.39
73624;BME280;61921;53.226;-1.296;2023-05-23T09:05:29;101611.03;;;17.23;51.11
73624;BME280;61921;53.226;-1.296;2023-05-23T09:07:54;101608.86;;;17.28;51.98
73624;BME280;61921;53.226;-1.296;2023-05-23T09:10:20;101610.17;;;17.16;49.99
73624;BME280;61921;53.226;-1.296;2023-05-23T09:12:45;101613.98;;;18.25;48.35
73624;BME280;61921;53.226;-1.296;2023-05-23T09:15:11;101605.31;;;18.99;46.85
73624;BME280;61921;53.226;-1.296;2023-05-23T09:17:36;101609.90;;;18.95;46.30
73624;BME280;61921;53.226;-1.296;2023-05-23T09:20:01;101613.24;;;17.94;48.63
73624;BME280;61921;53.226;-1.296;2023-05-23T09:22:26;101612.42;;;18.03;49.68
73624;BME280;61921;53.226;-1.296;2023-05-23T09:24:51;101612.69;;;18.12;49.58
73624;BME280;61921;53.226;-1.296;2023-05-23T09:27:16;101613.42;;;18.73;46.68
73624;BME280;61921;53.226;-1.296;2023-05-23T09:29:41;101611.13;;;19.01;46.68
73624;BME280;61921;53.226;-1.296;2023-05-23T09:32:11;101609.58;;;19.01;45.77
73624;BME280;61921;53.226;-1.296;2023-05-23T09:34:32;101609.44;;;19.01;45.30
73624;BME280;61921;53.226;-1.296;2023-05-23T09:36:58;101609.35;;;19.57;44.17
73624;BME280;61921;53.226;-1.296;2023-05-23T09:39:22;101605.15;;;19.69;44.74
73624;BME280;61921;53.226;-1.296;2023-05-23T09:41:47;101608.00;;;20.08;42.82
73624;BME280;61921;53.226;-1.296;2023-05-23T09:44:12;101607.75;;;20.03;40.41
73624;BME280;61921;53.226;-1.296;2023-05-23T09:46:37;101603.68;;;20.33;40.97
73624;BME280;61921;53.226;-1.296;2023-05-23T09:49:14;101602.44;;;20.39;40.73
73624;BME280;61921;53.226;-1.296;2023-05-23T09:51:28;101604.73;;;20.22;41.28
73624;BME280;61921;53.226;-1.296;2023-05-23T09:53:53;101604.36;;;20.05;41.55
73624;BME280;61921;53.226;-1.296;2023-05-23T09:56:19;101600.79;;;20.57;41.42
73624;BME280;61921;53.226;-1.296;2023-05-23T09:58:45;101604.62;;;20.61;39.56
73624;BME280;61921;53.226;-1.296;2023-05-23T10:01:09;101605.32;;;20.74;38.97
73624;BME280;61921;53.226;-1.296;2023-05-23T10:03:39;101601.51;;;20.56;39.05
73624;BME280;61921;53.226;-1.296;2023-05-23T10:06:03;101602.36;;;19.66;41.53
73624;BME280;61921;53.226;-1.296;2023-05-23T10:08:31;101602.51;;;19.97;40.12
73624;BME280;61921;53.226;-1.296;2023-05-23T10:13:15;101596.64;;;20.34;42.71
73624;BME280;61921;53.226;-1.296;2023-05-23T10:15:41;101598.37;;;20.76;41.22
73624;BME280;61921;53.226;-1.296;2023-05-23T10:18:10;101598.65;;;21.20;39.43
73624;BME280;61921;53.226;-1.296;2023-05-23T10:20:31;101597.87;;;21.41;39.48
73624;BME280;61921;53.226;-1.296;2023-05-23T10:22:56;101598.39;;;20.21;39.80
73624;BME280;61921;53.226;-1.296;2023-05-23T10:25:20;101592.55;;;20.73;40.75
73624;BME280;61921;53.226;-1.296;2023-05-23T10:27:48;101587.57;;;20.83;39.61
73624;BME280;61921;53.226;-1.296;2023-05-23T10:30:12;101586.22;;;20.19;41.00
73624;BME280;61921;53.226;-1.296;2023-05-23T10:32:37;101582.40;;;20.07;40.98
73624;BME280;61921;53.226;-1.296;2023-05-23T10:35:09;101579.84;;;20.21;42.16
73624;BME280;61921;53.226;-1.296;2023-05-23T10:37:32;101578.95;;;20.41;42.28
73624;BME280;61921;53.226;-1.296;2023-05-23T10:39:58;101582.30;;;20.04;41.29
73624;BME280;61921;53.226;-1.296;2023-05-23T10:42:26;101578.06;;;20.40;41.88
73624;BME280;61921;53.226;-1.296;2023-05-23T10:44:41;101571.89;;;20.86;41.35
73624;BME280;61921;53.226;-1.296;2023-05-23T10:47:06;101571.63;;;21.36;40.70
73624;BME280;61921;53.226;-1.296;2023-05-23T10:49:39;101567.28;;;21.36;40.54
73624;BME280;61921;53.226;-1.296;2023-05-23T10:51:58;101564.64;;;21.40;40.38
73624;BME280;61921;53.226;-1.296;2023-05-23T10:54:22;101563.18;;;21.66;38.47
73624;BME280;61921;53.226;-1.296;2023-05-23T10:59:20;101556.32;;;21.57;40.33
73624;BME280;61921;53.226;-1.296;2023-05-23T11:01:38;101557.66;;;21.48;39.07
73624;BME280;61921;53.226;-1.296;2023-05-23T11:04:04;101558.06;;;21.88;38.40
73624;BME280;61921;53.226;-1.296;2023-05-23T11:06:31;101554.19;;;20.53;40.16
73624;BME280;61921;53.226;-1.296;2023-05-23T11:09:01;101557.82;;;21.37;39.61
73624;BME280;61921;53.226;-1.296;2023-05-23T11:11:20;101558.76;;;21.73;38.23
73624;BME280;61921;53.226;-1.296;2023-05-23T11:13:55;101558.08;;;21.92;37.52
73624;BME280;61921;53.226;-1.296;2023-05-23T11:18:35;101552.09;;;21.44;38.97
73624;BME280;61921;53.226;-1.296;2023-05-23T11:21:00;101550.39;;;21.55;39.99
73624;BME280;61921;53.226;-1.296;2023-05-23T11:25:50;101552.03;;;21.74;40.03
73624;BME280;61921;53.226;-1.296;2023-05-23T11:28:14;101555.55;;;21.94;38.57
73624;BME280;61921;53.226;-1.296;2023-05-23T11:30:40;101557.30;;;22.09;38.21
73624;BME280;61921;53.226;-1.296;2023-05-23T11:33:06;101553.34;;;21.33;39.29
73624;BME280;61921;53.226;-1.296;2023-05-23T11:35:30;101550.88;;;20.95;40.11
73624;BME280;61921;53.226;-1.296;2023-05-23T11:37:56;101555.43;;;21.87;39.81
73624;BME280;61921;53.226;-1.296;2023-05-23T11:40:27;101553.64;;;22.25;38.17
73624;BME280;61921;53.226;-1.296;2023-05-23T11:42:45;101553.73;;;22.35;38.68
73624;BME280;61921;53.226;-1.296;2023-05-23T11:45:10;101550.71;;;22.85;36.85
73624;BME280;61921;53.226;-1.296;2023-05-23T11:47:40;101553.06;;;23.36;38.43
73624;BME280;61921;53.226;-1.296;2023-05-23T11:50:01;101542.09;;;22.98;37.49
73624;BME280;61921;53.226;-1.296;2023-05-23T11:52:31;101544.22;;;23.26;36.76
73624;BME280;61921;53.226;-1.296;2023-05-23T11:54:53;101542.08;;;22.84;38.39
73624;BME280;61921;53.226;-1.296;2023-05-23T11:57:18;101537.37;;;22.88;37.44
73624;BME280;61921;53.226;-1.296;2023-05-23T11:59:43;101538.57;;;22.90;37.96
73624;BME280;61921;53.226;-1.296;2023-05-23T12:02:08;101536.39;;;23.19;37.32
73624;BME280;61921;53.226;-1.296;2023-05-23T12:04:34;101533.42;;;23.44;36.08
73624;BME280;61921;53.226;-1.296;2023-05-23T12:06:58;101522.00;;;22.41;37.84
73624;BME280;61921;53.226;-1.296;2023-05-23T12:09:23;101516.80;;;23.06;37.37
73624;BME280;61921;53.226;-1.296;2023-05-23T12:11:49;101516.75;;;23.34;36.46
73624;BME280;61921;53.226;-1.296;2023-05-23T12:14:15;101514.40;;;23.43;36.70
73624;BME280;61921;53.226;-1.296;2023-05-23T12:16:39;101513.81;;;23.46;36.16
73624;BME280;61921;53.226;-1.296;2023-05-23T12:19:04;101521.56;;;23.51;36.31
73624;BME280;61921;53.226;-1.296;2023-05-23T12:23:55;101522.71;;;22.96;36.76
73624;BME280;61921;53.226;-1.296;2023-05-23T12:26:19;101525.37;;;22.80;37.30
73624;BME280;61921;53.226;-1.296;2023-05-23T12:28:44;101520.77;;;22.71;37.11
73624;BME280;61921;53.226;-1.296;2023-05-23T12:31:11;101520.53;;;22.79;37.38
73624;BME280;61921;53.226;-1.296;2023-05-23T12:33:37;101519.40;;;22.67;38.51
73624;BME280;61921;53.226;-1.296;2023-05-23T12:35:59;101517.36;;;22.56;37.61
73624;BME280;61921;53.226;-1.296;2023-05-23T12:38:27;101517.61;;;22.43;38.06
73624;BME280;61921;53.226;-1.296;2023-05-23T12:43:15;101521.71;;;22.00;39.05